Hlavní strana
METAR-TAF:

METAR-TAF

Letiště :

Malden, Missouri, Spojené státy americké

zeměpisná šířka: 36-35-54N, zeměpisná délka: 089-59-33W, výška: 90 m

Aktuální stav počasí

Zpráva byla vytvořena před 19 minutami, v 22:55 UTC
Jižní vítr 4 kt
Teplota 17°C
Vlhkost vzduchu 59%
Tlak 1016 hPa
Viditelnost: 16.1 km
Jasno

METAR: KMAW 242255Z AUTO 19004KT 10SM CLR 17/09 A3001 RMK AO2

Čas: 17:14 (23:14 UTC)


TAF: chybějící

Stav a předpovědi počasí z více než 4 000 letišť (zprávy METAR a TAF).

Červené a žluté tečky na mapě představují dostupné meteorologické stanice.

Když kurzor umístíte na tečku, zobrazí se název stanice.

Pak kliknutím zobrazíte stav a předpověď počasí.

Chcete-li změnit mapu, kliknutím na zelené tlačítko se znaménkem +mapu přiblížíte, kliknutím na zelené tlačítko se znaménkem – mapu oddálíte a kliknutím na zelené šipky přejdete na sousední mapy.


METAR-TAF: